sensor_id;sensor_type;location;lat;lon;timestamp;temperature;humidity
10306;DHT22;5198;52.382;9.020;2023-08-06T00:02:31;16.30;99.90
10306;DHT22;5198;52.382;9.020;2023-08-06T00:06:34;16.30;99.90
10306;DHT22;5198;52.382;9.020;2023-08-06T00:10:38;16.30;99.90
10306;DHT22;5198;52.382;9.020;2023-08-06T00:14:42;16.30;99.90
10306;DHT22;5198;52.382;9.020;2023-08-06T00:18:46;16.30;99.90
10306;DHT22;5198;52.382;9.020;2023-08-06T00:22:48;16.30;99.90
10306;DHT22;5198;52.382;9.020;2023-08-06T00:26:53;16.20;99.90
10306;DHT22;5198;52.382;9.020;2023-08-06T00:30:56;16.30;99.90
10306;DHT22;5198;52.382;9.020;2023-08-06T00:34:59;16.30;99.90
10306;DHT22;5198;52.382;9.020;2023-08-06T00:39:02;16.20;99.90
10306;DHT22;5198;52.382;9.020;2023-08-06T00:43:06;16.20;99.90
10306;DHT22;5198;52.382;9.020;2023-08-06T00:47:09;16.20;99.90
10306;DHT22;5198;52.382;9.020;2023-08-06T00:51:12;16.20;99.90
10306;DHT22;5198;52.382;9.020;2023-08-06T00:55:15;16.20;99.90
10306;DHT22;5198;52.382;9.020;2023-08-06T00:59:19;16.20;99.90
10306;DHT22;5198;52.382;9.020;2023-08-06T01:03:22;16.20;99.90
10306;DHT22;5198;52.382;9.020;2023-08-06T01:07:30;16.20;99.90
10306;DHT22;5198;52.382;9.020;2023-08-06T01:11:38;16.20;99.90
10306;DHT22;5198;52.382;9.020;2023-08-06T01:15:43;16.20;99.90
10306;DHT22;5198;52.382;9.020;2023-08-06T01:19:48;16.10;99.90
10306;DHT22;5198;52.382;9.020;2023-08-06T01:23:52;16.20;99.90
10306;DHT22;5198;52.382;9.020;2023-08-06T01:27:56;16.10;99.90
10306;DHT22;5198;52.382;9.020;2023-08-06T01:32:02;16.10;99.90
10306;DHT22;5198;52.382;9.020;2023-08-06T01:36:06;16.10;99.90
10306;DHT22;5198;52.382;9.020;2023-08-06T01:40:11;16.10;99.90
10306;DHT22;5198;52.382;9.020;2023-08-06T01:44:14;16.10;99.90
10306;DHT22;5198;52.382;9.020;2023-08-06T01:48:17;16.10;99.90
10306;DHT22;5198;52.382;9.020;2023-08-06T01:52:22;16.10;99.90
10306;DHT22;5198;52.382;9.020;2023-08-06T01:56:26;16.00;99.90
10306;DHT22;5198;52.382;9.020;2023-08-06T02:00:29;16.00;99.90
10306;DHT22;5198;52.382;9.020;2023-08-06T02:04:33;16.00;99.90
10306;DHT22;5198;52.382;9.020;2023-08-06T02:08:36;16.00;99.90
10306;DHT22;5198;52.382;9.020;2023-08-06T02:12:41;16.00;99.90
10306;DHT22;5198;52.382;9.020;2023-08-06T02:16:44;16.00;99.90
10306;DHT22;5198;52.382;9.020;2023-08-06T02:20:54;16.00;99.90
10306;DHT22;5198;52.382;9.020;2023-08-06T02:24:57;16.00;99.90
10306;DHT22;5198;52.382;9.020;2023-08-06T02:29:01;16.00;99.90
10306;DHT22;5198;52.382;9.020;2023-08-06T02:33:04;15.90;99.90
10306;DHT22;5198;52.382;9.020;2023-08-06T02:37:07;16.00;99.90
10306;DHT22;5198;52.382;9.020;2023-08-06T02:41:10;15.90;99.90
10306;DHT22;5198;52.382;9.020;2023-08-06T02:45:14;16.00;99.90
10306;DHT22;5198;52.382;9.020;2023-08-06T02:49:17;15.90;99.90
10306;DHT22;5198;52.382;9.020;2023-08-06T02:53:20;15.90;99.90
10306;DHT22;5198;52.382;9.020;2023-08-06T02:57:23;15.90;99.90
10306;DHT22;5198;52.382;9.020;2023-08-06T03:01:27;15.90;99.90
10306;DHT22;5198;52.382;9.020;2023-08-06T03:05:30;15.90;99.90
10306;DHT22;5198;52.382;9.020;2023-08-06T03:09:34;15.90;99.90
10306;DHT22;5198;52.382;9.020;2023-08-06T03:13:37;15.80;99.90
10306;DHT22;5198;52.382;9.020;2023-08-06T03:17:41;15.80;99.90
10306;DHT22;5198;52.382;9.020;2023-08-06T03:21:45;15.80;99.90
10306;DHT22;5198;52.382;9.020;2023-08-06T03:25:48;15.70;99.90
10306;DHT22;5198;52.382;9.020;2023-08-06T03:29:51;15.60;99.90
10306;DHT22;5198;52.382;9.020;2023-08-06T03:33:56;15.60;99.90
10306;DHT22;5198;52.382;9.020;2023-08-06T03:37:58;15.60;99.90
10306;DHT22;5198;52.382;9.020;2023-08-06T03:42:01;15.50;99.90
10306;DHT22;5198;52.382;9.020;2023-08-06T03:46:04;15.50;99.90
10306;DHT22;5198;52.382;9.020;2023-08-06T03:50:09;15.40;99.90
10306;DHT22;5198;52.382;9.020;2023-08-06T03:54:12;15.30;99.90
10306;DHT22;5198;52.382;9.020;2023-08-06T03:58:15;15.20;99.90
10306;DHT22;5198;52.382;9.020;2023-08-06T04:02:18;15.20;99.90
10306;DHT22;5198;52.382;9.020;2023-08-06T04:06:22;15.10;99.90
10306;DHT22;5198;52.382;9.020;2023-08-06T04:10:25;15.10;99.90
10306;DHT22;5198;52.382;9.020;2023-08-06T04:14:29;15.00;99.90
10306;DHT22;5198;52.382;9.020;2023-08-06T04:18:32;15.00;99.90
10306;DHT22;5198;52.382;9.020;2023-08-06T04:22:36;14.90;99.90
10306;DHT22;5198;52.382;9.020;2023-08-06T04:26:39;14.90;99.90
10306;DHT22;5198;52.382;9.020;2023-08-06T04:30:42;14.80;99.90
10306;DHT22;5198;52.382;9.020;2023-08-06T04:34:45;14.90;99.90
10306;DHT22;5198;52.382;9.020;2023-08-06T04:38:49;14.90;99.90
10306;DHT22;5198;52.382;9.020;2023-08-06T04:42:53;14.80;99.90
10306;DHT22;5198;52.382;9.020;2023-08-06T04:46:56;14.80;99.90
10306;DHT22;5198;52.382;9.020;2023-08-06T04:50:58;14.80;99.90
10306;DHT22;5198;52.382;9.020;2023-08-06T04:55:03;14.80;99.90
10306;DHT22;5198;52.382;9.020;2023-08-06T04:59:07;14.80;99.90
10306;DHT22;5198;52.382;9.020;2023-08-06T05:03:10;14.80;99.90
10306;DHT22;5198;52.382;9.020;2023-08-06T05:07:13;14.70;99.90
10306;DHT22;5198;52.382;9.020;2023-08-06T05:11:17;14.80;99.90
10306;DHT22;5198;52.382;9.020;2023-08-06T05:15:20;14.80;99.90
10306;DHT22;5198;52.382;9.020;2023-08-06T05:19:23;14.80;99.90
10306;DHT22;5198;52.382;9.020;2023-08-06T05:23:27;14.80;99.90
10306;DHT22;5198;52.382;9.020;2023-08-06T05:27:31;14.90;99.90
10306;DHT22;5198;52.382;9.020;2023-08-06T05:31:34;14.90;99.90
10306;DHT22;5198;52.382;9.020;2023-08-06T05:35:37;15.00;99.90
10306;DHT22;5198;52.382;9.020;2023-08-06T05:39:40;15.00;99.90
10306;DHT22;5198;52.382;9.020;2023-08-06T05:43:44;15.10;99.90
10306;DHT22;5198;52.382;9.020;2023-08-06T05:47:47;15.20;99.90
10306;DHT22;5198;52.382;9.020;2023-08-06T05:51:50;15.20;99.90
10306;DHT22;5198;52.382;9.020;2023-08-06T05:55:56;15.40;99.90
10306;DHT22;5198;52.382;9.020;2023-08-06T06:00:01;15.40;99.90
10306;DHT22;5198;52.382;9.020;2023-08-06T06:04:05;15.50;99.90
10306;DHT22;5198;52.382;9.020;2023-08-06T06:08:08;15.60;99.90
10306;DHT22;5198;52.382;9.020;2023-08-06T06:12:11;15.70;99.90
10306;DHT22;5198;52.382;9.020;2023-08-06T06:16:15;15.80;99.90
10306;DHT22;5198;52.382;9.020;2023-08-06T06:20:18;16.00;99.90
10306;DHT22;5198;52.382;9.020;2023-08-06T06:24:21;16.10;99.90
10306;DHT22;5198;52.382;9.020;2023-08-06T06:28:23;16.10;99.90
10306;DHT22;5198;52.382;9.020;2023-08-06T06:32:28;16.30;99.90
10306;DHT22;5198;52.382;9.020;2023-08-06T06:36:33;16.60;99.90
10306;DHT22;5198;52.382;9.020;2023-08-06T06:40:36;16.50;99.90
10306;DHT22;5198;52.382;9.020;2023-08-06T06:44:39;16.60;99.90
10306;DHT22;5198;52.382;9.020;2023-08-06T06:48:43;16.70;99.90
10306;DHT22;5198;52.382;9.020;2023-08-06T06:52:46;16.80;99.90
10306;DHT22;5198;52.382;9.020;2023-08-06T06:56:50;16.90;99.90
10306;DHT22;5198;52.382;9.020;2023-08-06T07:00:53;16.90;99.90
10306;DHT22;5198;52.382;9.020;2023-08-06T07:04:57;17.00;99.90
10306;DHT22;5198;52.382;9.020;2023-08-06T07:09:00;17.10;99.90
10306;DHT22;5198;52.382;9.020;2023-08-06T07:17:12;17.30;99.90
10306;DHT22;5198;52.382;9.020;2023-08-06T07:21:17;17.40;99.90
10306;DHT22;5198;52.382;9.020;2023-08-06T07:25:20;17.40;99.90
10306;DHT22;5198;52.382;9.020;2023-08-06T07:29:23;17.50;99.90
10306;DHT22;5198;52.382;9.020;2023-08-06T07:33:26;17.60;99.90
10306;DHT22;5198;52.382;9.020;2023-08-06T07:37:30;17.70;99.90
10306;DHT22;5198;52.382;9.020;2023-08-06T07:41:33;17.80;99.90
10306;DHT22;5198;52.382;9.020;2023-08-06T07:45:37;17.90;99.90
10306;DHT22;5198;52.382;9.020;2023-08-06T07:49:40;18.00;99.90
10306;DHT22;5198;52.382;9.020;2023-08-06T07:53:47;18.20;99.90
10306;DHT22;5198;52.382;9.020;2023-08-06T07:57:50;18.30;99.90
10306;DHT22;5198;52.382;9.020;2023-08-06T08:01:53;18.40;99.90
10306;DHT22;5198;52.382;9.020;2023-08-06T08:05:56;18.60;99.90
10306;DHT22;5198;52.382;9.020;2023-08-06T08:10:01;18.70;99.90
10306;DHT22;5198;52.382;9.020;2023-08-06T08:14:04;18.90;99.90
10306;DHT22;5198;52.382;9.020;2023-08-06T08:18:07;19.10;99.90
10306;DHT22;5198;52.382;9.020;2023-08-06T08:22:17;19.30;99.90
10306;DHT22;5198;52.382;9.020;2023-08-06T08:26:21;19.50;99.90
10306;DHT22;5198;52.382;9.020;2023-08-06T08:30:25;19.60;99.90
10306;DHT22;5198;52.382;9.020;2023-08-06T08:34:28;19.80;99.90
10306;DHT22;5198;52.382;9.020;2023-08-06T08:38:31;19.90;99.90
10306;DHT22;5198;52.382;9.020;2023-08-06T08:42:35;20.00;99.90
10306;DHT22;5198;52.382;9.020;2023-08-06T08:46:40;20.20;99.90
10306;DHT22;5198;52.382;9.020;2023-08-06T08:50:50;20.40;99.90
10306;DHT22;5198;52.382;9.020;2023-08-06T08:54:53;20.50;99.90
10306;DHT22;5198;52.382;9.020;2023-08-06T08:58:58;20.80;99.90
10306;DHT22;5198;52.382;9.020;2023-08-06T09:03:01;21.00;99.90
10306;DHT22;5198;52.382;9.020;2023-08-06T09:07:08;21.20;99.90
10306;DHT22;5198;52.382;9.020;2023-08-06T09:11:13;21.40;99.90
10306;DHT22;5198;52.382;9.020;2023-08-06T09:15:20;21.80;99.90
10306;DHT22;5198;52.382;9.020;2023-08-06T09:19:24;21.80;99.90
10306;DHT22;5198;52.382;9.020;2023-08-06T09:23:29;22.20;99.90
10306;DHT22;5198;52.382;9.020;2023-08-06T09:27:33;22.30;99.90
10306;DHT22;5198;52.382;9.020;2023-08-06T09:31:40;22.50;99.90
10306;DHT22;5198;52.382;9.020;2023-08-06T09:35:57;22.70;99.90
10306;DHT22;5198;52.382;9.020;2023-08-06T09:39:59;22.70;99.90
10306;DHT22;5198;52.382;9.020;2023-08-06T09:44:04;22.70;99.90
10306;DHT22;5198;52.382;9.020;2023-08-06T09:48:08;22.70;99.90
10306;DHT22;5198;52.382;9.020;2023-08-06T09:52:13;22.70;99.90
10306;DHT22;5198;52.382;9.020;2023-08-06T09:56:17;22.60;99.90
10306;DHT22;5198;52.382;9.020;2023-08-06T10:00:21;22.50;99.90
10306;DHT22;5198;52.382;9.020;2023-08-06T10:04:25;22.40;99.90
10306;DHT22;5198;52.382;9.020;2023-08-06T10:08:39;22.30;99.90
10306;DHT22;5198;52.382;9.020;2023-08-06T10:12:44;22.40;99.90
10306;DHT22;5198;52.382;9.020;2023-08-06T10:16:49;22.50;99.90
10306;DHT22;5198;52.382;9.020;2023-08-06T10:20:54;22.70;99.90
10306;DHT22;5198;52.382;9.020;2023-08-06T10:24:58;22.90;99.90
10306;DHT22;5198;52.382;9.020;2023-08-06T10:33:25;23.40;99.90
10306;DHT22;5198;52.382;9.020;2023-08-06T10:37:45;23.50;99.90
10306;DHT22;5198;52.382;9.020;2023-08-06T10:41:48;23.60;99.90
10306;DHT22;5198;52.382;9.020;2023-08-06T10:45:51;23.80;99.90
10306;DHT22;5198;52.382;9.020;2023-08-06T10:49:54;24.00;99.90
10306;DHT22;5198;52.382;9.020;2023-08-06T10:53:59;24.20;99.90
10306;DHT22;5198;52.382;9.020;2023-08-06T10:58:02;24.40;99.90
10306;DHT22;5198;52.382;9.020;2023-08-06T11:02:09;24.60;99.90
10306;DHT22;5198;52.382;9.020;2023-08-06T11:06:16;24.80;99.90
10306;DHT22;5198;52.382;9.020;2023-08-06T11:10:21;24.80;99.90
10306;DHT22;5198;52.382;9.020;2023-08-06T11:14:24;24.80;99.90
10306;DHT22;5198;52.382;9.020;2023-08-06T11:18:28;24.70;99.90
10306;DHT22;5198;52.382;9.020;2023-08-06T11:22:31;24.60;99.90
10306;DHT22;5198;52.382;9.020;2023-08-06T11:26:36;24.50;99.90
10306;DHT22;5198;52.382;9.020;2023-08-06T11:30:40;24.40;99.90
10306;DHT22;5198;52.382;9.020;2023-08-06T11:34:44;24.30;99.90
10306;DHT22;5198;52.382;9.020;2023-08-06T11:38:47;24.10;99.90
10306;DHT22;5198;52.382;9.020;2023-08-06T11:42:52;23.90;99.90
10306;DHT22;5198;52.382;9.020;2023-08-06T11:46:55;23.70;99.90
10306;DHT22;5198;52.382;9.020;2023-08-06T11:50:58;23.50;99.90
10306;DHT22;5198;52.382;9.020;2023-08-06T11:55:02;23.30;99.90
10306;DHT22;5198;52.382;9.020;2023-08-06T11:59:09;23.00;99.90
10306;DHT22;5198;52.382;9.020;2023-08-06T12:03:12;22.00;99.90
10306;DHT22;5198;52.382;9.020;2023-08-06T12:07:18;22.00;99.90
10306;DHT22;5198;52.382;9.020;2023-08-06T12:11:21;21.60;99.90
10306;DHT22;5198;52.382;9.020;2023-08-06T12:15:25;21.20;99.90
10306;DHT22;5198;52.382;9.020;2023-08-06T12:19:30;20.80;99.90
10306;DHT22;5198;52.382;9.020;2023-08-06T12:23:32;20.60;99.90
10306;DHT22;5198;52.382;9.020;2023-08-06T12:27:36;20.40;99.90
10306;DHT22;5198;52.382;9.020;2023-08-06T12:31:41;20.20;99.90
10306;DHT22;5198;52.382;9.020;2023-08-06T12:35:43;20.10;99.90
10306;DHT22;5198;52.382;9.020;2023-08-06T12:39:46;20.00;99.90
10306;DHT22;5198;52.382;9.020;2023-08-06T12:43:49;19.90;99.90
10306;DHT22;5198;52.382;9.020;2023-08-06T12:47:54;19.80;99.90
10306;DHT22;5198;52.382;9.020;2023-08-06T12:51:57;19.80;99.90
10306;DHT22;5198;52.382;9.020;2023-08-06T12:56:02;19.80;99.90
10306;DHT22;5198;52.382;9.020;2023-08-06T13:00:06;19.80;99.90
10306;DHT22;5198;52.382;9.020;2023-08-06T13:04:10;19.80;99.90
10306;DHT22;5198;52.382;9.020;2023-08-06T13:08:23;19.90;99.90
10306;DHT22;5198;52.382;9.020;2023-08-06T13:12:26;20.00;99.90
10306;DHT22;5198;52.382;9.020;2023-08-06T13:16:29;20.20;99.90
10306;DHT22;5198;52.382;9.020;2023-08-06T13:20:33;20.30;99.90
10306;DHT22;5198;52.382;9.020;2023-08-06T13:24:36;20.50;99.90
10306;DHT22;5198;52.382;9.020;2023-08-06T13:28:39;20.60;99.90
10306;DHT22;5198;52.382;9.020;2023-08-06T13:32:42;20.80;99.90
10306;DHT22;5198;52.382;9.020;2023-08-06T13:36:46;21.00;99.90
10306;DHT22;5198;52.382;9.020;2023-08-06T13:40:49;21.10;99.90
10306;DHT22;5198;52.382;9.020;2023-08-06T13:44:52;21.20;99.90
10306;DHT22;5198;52.382;9.020;2023-08-06T13:49:01;21.30;99.90
10306;DHT22;5198;52.382;9.020;2023-08-06T13:53:05;21.40;99.90
10306;DHT22;5198;52.382;9.020;2023-08-06T13:57:15;21.40;99.90
10306;DHT22;5198;52.382;9.020;2023-08-06T14:01:33;21.40;99.90
10306;DHT22;5198;52.382;9.020;2023-08-06T14:05:51;21.30;99.90
10306;DHT22;5198;52.382;9.020;2023-08-06T14:10:05;21.30;99.90
10306;DHT22;5198;52.382;9.020;2023-08-06T14:14:09;21.30;99.90
10306;DHT22;5198;52.382;9.020;2023-08-06T14:18:12;21.40;99.90
10306;DHT22;5198;52.382;9.020;2023-08-06T14:22:14;21.40;99.90
10306;DHT22;5198;52.382;9.020;2023-08-06T14:26:19;21.50;99.90
10306;DHT22;5198;52.382;9.020;2023-08-06T14:30:22;21.70;99.90
10306;DHT22;5198;52.382;9.020;2023-08-06T14:34:25;22.10;99.90
10306;DHT22;5198;52.382;9.020;2023-08-06T14:43:04;22.30;99.90
10306;DHT22;5198;52.382;9.020;2023-08-06T14:47:07;22.50;99.90
10306;DHT22;5198;52.382;9.020;2023-08-06T14:51:10;22.60;99.90
10306;DHT22;5198;52.382;9.020;2023-08-06T14:55:17;22.60;99.90
10306;DHT22;5198;52.382;9.020;2023-08-06T14:59:21;22.50;99.90
10306;DHT22;5198;52.382;9.020;2023-08-06T15:03:25;22.50;99.90
10306;DHT22;5198;52.382;9.020;2023-08-06T15:07:30;22.40;99.90
10306;DHT22;5198;52.382;9.020;2023-08-06T15:11:35;22.30;99.90
10306;DHT22;5198;52.382;9.020;2023-08-06T15:15:40;22.20;99.90
10306;DHT22;5198;52.382;9.020;2023-08-06T15:19:44;22.10;99.90
10306;DHT22;5198;52.382;9.020;2023-08-06T15:23:46;22.00;99.90
10306;DHT22;5198;52.382;9.020;2023-08-06T15:27:49;21.90;99.90
10306;DHT22;5198;52.382;9.020;2023-08-06T15:31:54;21.80;99.90
10306;DHT22;5198;52.382;9.020;2023-08-06T15:35:57;21.80;99.90
10306;DHT22;5198;52.382;9.020;2023-08-06T15:40:00;21.70;99.90
10306;DHT22;5198;52.382;9.020;2023-08-06T15:44:03;21.70;99.90
10306;DHT22;5198;52.382;9.020;2023-08-06T15:48:07;21.70;99.90
10306;DHT22;5198;52.382;9.020;2023-08-06T15:52:13;21.60;99.90
10306;DHT22;5198;52.382;9.020;2023-08-06T15:56:18;21.50;99.90
10306;DHT22;5198;52.382;9.020;2023-08-06T16:00:34;21.40;99.90
10306;DHT22;5198;52.382;9.020;2023-08-06T16:04:40;21.30;99.90
10306;DHT22;5198;52.382;9.020;2023-08-06T16:08:43;21.20;99.90
10306;DHT22;5198;52.382;9.020;2023-08-06T16:12:46;21.00;99.90
10306;DHT22;5198;52.382;9.020;2023-08-06T16:16:51;20.90;99.90
10306;DHT22;5198;52.382;9.020;2023-08-06T16:20:57;20.70;99.90
10306;DHT22;5198;52.382;9.020;2023-08-06T16:25:00;20.60;99.90
10306;DHT22;5198;52.382;9.020;2023-08-06T16:29:03;20.50;99.90
10306;DHT22;5198;52.382;9.020;2023-08-06T16:33:22;20.40;99.90
10306;DHT22;5198;52.382;9.020;2023-08-06T16:37:29;20.30;99.90
10306;DHT22;5198;52.382;9.020;2023-08-06T16:45:46;20.30;99.90
10306;DHT22;5198;52.382;9.020;2023-08-06T16:49:49;20.20;99.90
10306;DHT22;5198;52.382;9.020;2023-08-06T16:53:53;20.20;99.90
10306;DHT22;5198;52.382;9.020;2023-08-06T16:57:57;20.10;99.90
10306;DHT22;5198;52.382;9.020;2023-08-06T17:02:00;20.10;99.90
10306;DHT22;5198;52.382;9.020;2023-08-06T17:06:03;20.00;99.90
10306;DHT22;5198;52.382;9.020;2023-08-06T17:10:16;20.00;99.90
10306;DHT22;5198;52.382;9.020;2023-08-06T17:14:21;19.90;99.90
10306;DHT22;5198;52.382;9.020;2023-08-06T17:18:24;19.90;99.90
10306;DHT22;5198;52.382;9.020;2023-08-06T17:22:27;19.80;99.90
10306;DHT22;5198;52.382;9.020;2023-08-06T17:26:31;19.70;99.90
10306;DHT22;5198;52.382;9.020;2023-08-06T17:30:34;19.50;99.90
10306;DHT22;5198;52.382;9.020;2023-08-06T17:34:37;19.40;99.90
10306;DHT22;5198;52.382;9.020;2023-08-06T17:38:40;19.30;99.90
10306;DHT22;5198;52.382;9.020;2023-08-06T17:42:45;19.20;99.90
10306;DHT22;5198;52.382;9.020;2023-08-06T17:46:48;19.10;99.90
10306;DHT22;5198;52.382;9.020;2023-08-06T17:50:51;19.10;99.90
10306;DHT22;5198;52.382;9.020;2023-08-06T17:54:54;19.00;99.90
10306;DHT22;5198;52.382;9.020;2023-08-06T17:58:58;18.90;99.90
10306;DHT22;5198;52.382;9.020;2023-08-06T18:03:05;18.80;99.90
10306;DHT22;5198;52.382;9.020;2023-08-06T18:07:08;18.70;99.90
10306;DHT22;5198;52.382;9.020;2023-08-06T18:11:11;18.60;99.90
10306;DHT22;5198;52.382;9.020;2023-08-06T18:15:16;18.60;99.90
10306;DHT22;5198;52.382;9.020;2023-08-06T18:19:19;18.40;99.90
10306;DHT22;5198;52.382;9.020;2023-08-06T18:23:22;18.30;99.90
10306;DHT22;5198;52.382;9.020;2023-08-06T18:27:25;18.10;99.90
10306;DHT22;5198;52.382;9.020;2023-08-06T18:31:29;18.00;99.90
10306;DHT22;5198;52.382;9.020;2023-08-06T18:35:32;17.90;99.90
10306;DHT22;5198;52.382;9.020;2023-08-06T18:39:35;17.70;99.90
10306;DHT22;5198;52.382;9.020;2023-08-06T18:43:40;17.60;99.90
10306;DHT22;5198;52.382;9.020;2023-08-06T18:47:44;17.40;99.90
10306;DHT22;5198;52.382;9.020;2023-08-06T18:51:47;17.30;99.90
10306;DHT22;5198;52.382;9.020;2023-08-06T18:55:50;17.30;99.90
10306;DHT22;5198;52.382;9.020;2023-08-06T18:59:53;17.20;99.90
10306;DHT22;5198;52.382;9.020;2023-08-06T19:04:06;17.10;99.90
10306;DHT22;5198;52.382;9.020;2023-08-06T19:08:09;17.00;99.90
10306;DHT22;5198;52.382;9.020;2023-08-06T19:12:13;16.90;99.90
10306;DHT22;5198;52.382;9.020;2023-08-06T19:16:16;16.90;99.90
10306;DHT22;5198;52.382;9.020;2023-08-06T19:20:21;16.80;99.90
10306;DHT22;5198;52.382;9.020;2023-08-06T19:24:24;16.70;99.90
10306;DHT22;5198;52.382;9.020;2023-08-06T19:28:27;16.70;99.90
10306;DHT22;5198;52.382;9.020;2023-08-06T19:32:36;16.60;99.90
10306;DHT22;5198;52.382;9.020;2023-08-06T19:36:40;16.60;99.90
10306;DHT22;5198;52.382;9.020;2023-08-06T19:40:45;16.60;99.90
10306;DHT22;5198;52.382;9.020;2023-08-06T19:44:48;16.50;99.90
10306;DHT22;5198;52.382;9.020;2023-08-06T19:48:52;16.50;99.90
10306;DHT22;5198;52.382;9.020;2023-08-06T19:52:57;16.50;99.90
10306;DHT22;5198;52.382;9.020;2023-08-06T19:57:00;16.50;99.90
10306;DHT22;5198;52.382;9.020;2023-08-06T20:01:03;16.50;99.90
10306;DHT22;5198;52.382;9.020;2023-08-06T20:05:08;16.50;99.90
10306;DHT22;5198;52.382;9.020;2023-08-06T20:09:12;16.50;99.90
10306;DHT22;5198;52.382;9.020;2023-08-06T20:13:17;16.60;99.90
10306;DHT22;5198;52.382;9.020;2023-08-06T20:17:20;16.60;99.90
10306;DHT22;5198;52.382;9.020;2023-08-06T20:21:23;16.60;99.90
10306;DHT22;5198;52.382;9.020;2023-08-06T20:25:27;16.60;99.90
10306;DHT22;5198;52.382;9.020;2023-08-06T20:29:30;16.60;99.90
10306;DHT22;5198;52.382;9.020;2023-08-06T20:33:34;16.60;99.90
10306;DHT22;5198;52.382;9.020;2023-08-06T20:37:37;16.70;99.90
10306;DHT22;5198;52.382;9.020;2023-08-06T20:41:42;16.70;99.90
10306;DHT22;5198;52.382;9.020;2023-08-06T20:45:51;16.70;99.90
10306;DHT22;5198;52.382;9.020;2023-08-06T20:49:54;16.70;99.90
10306;DHT22;5198;52.382;9.020;2023-08-06T20:53:56;16.70;99.90
10306;DHT22;5198;52.382;9.020;2023-08-06T20:58:01;16.70;99.90
10306;DHT22;5198;52.382;9.020;2023-08-06T21:02:04;16.70;99.90
10306;DHT22;5198;52.382;9.020;2023-08-06T21:06:08;16.70;99.90
10306;DHT22;5198;52.382;9.020;2023-08-06T21:10:11;16.70;99.90
10306;DHT22;5198;52.382;9.020;2023-08-06T21:14:17;16.70;99.90
10306;DHT22;5198;52.382;9.020;2023-08-06T21:18:21;16.70;99.90
10306;DHT22;5198;52.382;9.020;2023-08-06T21:22:25;16.60;99.90
10306;DHT22;5198;52.382;9.020;2023-08-06T21:26:29;16.70;99.90
10306;DHT22;5198;52.382;9.020;2023-08-06T21:30:34;16.70;99.90
10306;DHT22;5198;52.382;9.020;2023-08-06T21:34:37;16.70;99.90
10306;DHT22;5198;52.382;9.020;2023-08-06T21:38:43;16.70;99.90
10306;DHT22;5198;52.382;9.020;2023-08-06T21:42:46;16.70;99.90
10306;DHT22;5198;52.382;9.020;2023-08-06T21:46:51;16.70;99.90
10306;DHT22;5198;52.382;9.020;2023-08-06T21:50:54;16.70;99.90
10306;DHT22;5198;52.382;9.020;2023-08-06T21:54:58;16.70;99.90
10306;DHT22;5198;52.382;9.020;2023-08-06T21:59:01;16.70;99.90
10306;DHT22;5198;52.382;9.020;2023-08-06T22:03:05;16.70;99.90
10306;DHT22;5198;52.382;9.020;2023-08-06T22:07:09;16.70;99.90
10306;DHT22;5198;52.382;9.020;2023-08-06T22:11:12;16.70;99.90
10306;DHT22;5198;52.382;9.020;2023-08-06T22:15:15;16.60;99.90
10306;DHT22;5198;52.382;9.020;2023-08-06T22:19:19;16.70;99.90
10306;DHT22;5198;52.382;9.020;2023-08-06T22:23:22;16.60;99.90
10306;DHT22;5198;52.382;9.020;2023-08-06T22:27:25;16.60;99.90
10306;DHT22;5198;52.382;9.020;2023-08-06T22:31:28;16.60;99.90
10306;DHT22;5198;52.382;9.020;2023-08-06T22:35:33;16.60;99.90
10306;DHT22;5198;52.382;9.020;2023-08-06T22:39:35;16.60;99.90
10306;DHT22;5198;52.382;9.020;2023-08-06T22:43:38;16.60;99.90
10306;DHT22;5198;52.382;9.020;2023-08-06T22:47:41;16.60;99.90
10306;DHT22;5198;52.382;9.020;2023-08-06T22:51:46;16.60;99.90
10306;DHT22;5198;52.382;9.020;2023-08-06T22:55:49;16.60;99.90
10306;DHT22;5198;52.382;9.020;2023-08-06T22:59:55;16.60;99.90
10306;DHT22;5198;52.382;9.020;2023-08-06T23:03:57;16.60;99.90
10306;DHT22;5198;52.382;9.020;2023-08-06T23:08:02;16.50;99.90
10306;DHT22;5198;52.382;9.020;2023-08-06T23:12:05;16.50;99.90
10306;DHT22;5198;52.382;9.020;2023-08-06T23:16:09;16.50;99.90
10306;DHT22;5198;52.382;9.020;2023-08-06T23:20:13;16.50;99.90
10306;DHT22;5198;52.382;9.020;2023-08-06T23:24:18;16.50;99.90
10306;DHT22;5198;52.382;9.020;2023-08-06T23:28:21;16.50;99.90
10306;DHT22;5198;52.382;9.020;2023-08-06T23:32:27;16.50;99.90
10306;DHT22;5198;52.382;9.020;2023-08-06T23:36:31;16.50;99.90
10306;DHT22;5198;52.382;9.020;2023-08-06T23:40:35;16.50;99.90
10306;DHT22;5198;52.382;9.020;2023-08-06T23:44:38;16.50;99.90
10306;DHT22;5198;52.382;9.020;2023-08-06T23:48:41;16.50;99.90
10306;DHT22;5198;52.382;9.020;2023-08-06T23:52:44;16.50;99.90
10306;DHT22;5198;52.382;9.020;2023-08-06T23:56:49;16.50;99.90
